Time;durP1;ratioP1;P1;durP2;ratioP2;P2;SDS_P1;SDS_P2;PMS_P1;PMS_P2;Temp;Humidity;BMP_temperature;BMP_pressure;BME280_temperature;BME280_humidity;BME280_pressure;Samples;Min_cycle;Max_cycle;Signal;HPM_P1;HPM_P2
2022/09/30 00:14:08;;;;;;;8.85;5.70;;;9.80;94.00;;;;;;4877198;29;20078;-95
2022/09/30 00:30:38;;;;;;;;;;;;;;;;;;;;;
2022/09/30 00:40:16;;;;;;;7.65;5.68;;;9.60;94.20;;;;;;4978490;28;20082;-95
2022/09/30 00:47:25;;;;;;;;;;;;;;;;;;;;;
2022/09/30 00:50:54;;;;;;;;;;;;;;;;;;;;;
2022/09/30 01:33:39;;;;;;;6.90;6.20;;;9.30;94.30;;;;;;4971151;28;20331;-95
2022/09/30 01:37:36;;;;;;;5.65;4.72;;;9.20;94.20;;;;;;4910413;29;20060;-96
2022/09/30 01:43:31;;;;;;;;;;;;;;;;;;;;;
2022/09/30 01:50:00;;;;;;;5.80;4.95;;;9.10;94.10;;;;;;4905205;29;20112;-95
2022/09/30 01:53:18;;;;;;;6.93;5.45;;;9.10;94.20;;;;;;4895141;29;20045;-96
2022/09/30 01:59:52;;;;;;;;;;;;;;;;;;;;;
2022/09/30 02:06:05;;;;;;;7.35;4.70;;;9.00;94.10;;;;;;4945633;28;20035;-94
2022/09/30 02:09:03;;;;;;;;;;;;;;;;;;;;;
2022/09/30 02:19:00;;;;;;;6.13;5.53;;;8.90;94.20;;;;;;4944832;29;20063;-95
2022/09/30 02:35:44;;;;;;;;;;;;;;;;;;;;;
2022/09/30 02:39:04;;;;;;;;;;;;;;;;;;;;;
2022/09/30 02:48:34;;;;;;;5.93;4.57;;;8.70;94.50;;;;;;4895374;29;20127;-95
2022/09/30 02:52:20;;;;;;;;;;;;;;;;;;;;;
2022/09/30 02:55:14;;;;;;;6.93;4.10;;;8.70;94.50;;;;;;4888175;29;20060;-95
2022/09/30 03:04:35;;;;;;;5.83;4.80;;;8.60;94.60;;;;;;4842069;29;20086;-95
2022/09/30 03:07:19;;;;;;;8.73;4.75;;;8.70;94.60;;;;;;4861342;29;20285;-95
2022/09/30 03:10:30;;;;;;;;;;;;;;;;;;;;;
2022/09/30 03:13:53;;;;;;;7.18;4.60;;;8.70;94.50;;;;;;4929096;29;20114;-95
2022/09/30 03:17:00;;;;;;;5.93;4.57;;;8.70;94.40;;;;;;4969027;29;20038;-95
2022/09/30 03:20:13;;;;;;;5.70;4.20;;;8.60;94.40;;;;;;4932012;29;20032;-96
2022/09/30 03:26:23;;;;;;;5.78;4.25;;;8.60;94.30;;;;;;4932826;29;20043;-95
2022/09/30 03:29:18;;;;;;;;;;;8.60;94.30;;;;;;4932368;29;20043;-95
2022/09/30 03:32:14;;;;;;;7.05;5.45;;;8.60;94.30;;;;;;4947219;29;20227;-95
2022/09/30 03:35:15;;;;;;;5.68;5.00;;;8.50;94.30;;;;;;4949013;29;20082;-95
2022/09/30 03:38:13;;;;;;;;;;;8.50;94.30;;;;;;4964312;28;20035;-95
2022/09/30 03:44:32;;;;;;;;;;;;;;;;;;;;;
2022/09/30 03:51:17;;;;;;;;;;;;;;;;;;;;;
2022/09/30 03:53:58;;;;;;;5.00;4.05;;;8.50;94.50;;;;;;4966733;29;20087;-95
2022/09/30 03:57:03;;;;;;;6.88;4.80;;;8.40;94.40;;;;;;4935627;29;20059;-95
2022/09/30 03:59:47;;;;;;;5.90;4.65;;;8.40;94.40;;;;;;4975196;28;20047;-94
2022/09/30 04:05:20;;;;;;;;;;;;;;;;;;;;;
2022/09/30 04:08:11;;;;;;;;;;;;;;;;;;;;;
2022/09/30 04:11:09;;;;;;;7.45;5.20;;;8.40;94.50;;;;;;4952473;29;20115;-94
2022/09/30 04:17:32;;;;;;;7.78;5.35;;;8.40;94.30;;;;;;4963979;29;20081;-94
2022/09/30 04:20:16;;;;;;;;;;;;;;;;;;;;;
2022/09/30 04:26:24;;;;;;;6.63;5.30;;;8.30;94.50;;;;;;4947973;29;20043;-95
2022/09/30 04:29:09;;;;;;;5.75;5.10;;;8.30;94.50;;;;;;4952155;29;20035;-94
2022/09/30 04:32:11;;;;;;;;;;;;;;;;;;;;;
2022/09/30 04:37:54;;;;;;;4.97;4.30;;;8.20;94.40;;;;;;4927457;29;20031;-95
2022/09/30 04:40:40;;;;;;;7.20;4.57;;;8.20;94.40;;;;;;4959633;29;20031;-95
2022/09/30 04:43:37;;;;;;;;;;;;;;;;;;;;;
2022/09/30 04:46:21;;;;;;;;;;;;;;;;;;;;;
2022/09/30 04:49:15;;;;;;;5.15;4.65;;;8.20;94.40;;;;;;4976126;29;20047;-94
2022/09/30 04:51:50;;;;;;;4.90;4.32;;;8.20;94.50;;;;;;4936559;29;20115;-93
2022/09/30 04:54:15;;;;;;;5.07;4.57;;;8.20;94.50;;;;;;4948098;29;20027;-92
2022/09/30 04:56:42;;;;;;;6.35;5.28;;;8.20;94.40;;;;;;4965911;29;20054;-93
2022/09/30 04:59:10;;;;;;;4.40;3.95;;;8.10;94.30;;;;;;4964802;29;20127;-92
2022/09/30 05:01:38;;;;;;;5.70;4.45;;;8.10;94.30;;;;;;4931580;29;20054;-92
2022/09/30 05:04:03;;;;;;;6.75;5.18;;;8.10;94.40;;;;;;4931925;29;20030;-92
2022/09/30 05:06:29;;;;;;;5.55;4.95;;;8.10;94.40;;;;;;4947940;29;20062;-93
2022/09/30 05:08:55;;;;;;;5.30;4.80;;;8.10;94.70;;;;;;4915653;29;20059;-90
2022/09/30 05:11:21;;;;;;;4.95;4.45;;;8.00;94.40;;;;;;4948674;29;20478;-91
2022/09/30 05:13:50;;;;;;;6.40;4.43;;;8.00;94.40;;;;;;4949738;29;20122;-92
2022/09/30 05:16:18;;;;;;;5.53;4.63;;;8.00;94.40;;;;;;4932523;29;20027;-91
2022/09/30 05:18:45;;;;;;;4.95;4.38;;;8.00;94.30;;;;;;4932027;29;20089;-93
2022/09/30 05:21:15;;;;;;;6.00;5.10;;;8.00;94.30;;;;;;4930862;29;20038;-92
2022/09/30 05:23:41;;;;;;;5.93;5.30;;;8.00;94.30;;;;;;4946511;29;20123;-93
2022/09/30 05:26:08;;;;;;;6.72;5.32;;;8.00;94.30;;;;;;4943359;28;20031;-90
2022/09/30 05:28:33;;;;;;;6.20;5.32;;;8.00;94.40;;;;;;4981200;28;20019;-93
2022/09/30 05:31:03;;;;;;;7.82;5.53;;;8.00;94.40;;;;;;4944590;28;20042;-92
2022/09/30 05:33:29;;;;;;;6.88;5.88;;;8.00;94.40;;;;;;4946002;28;20040;-91
2022/09/30 05:36:03;;;;;;;8.10;6.30;;;7.90;94.40;;;;;;4950213;29;20051;-90
2022/09/30 05:38:29;;;;;;;7.10;5.97;;;7.90;94.30;;;;;;4965040;29;20031;-90
2022/09/30 05:40:55;;;;;;;8.02;4.97;;;7.90;94.30;;;;;;4944231;29;20035;-88
2022/09/30 05:43:21;;;;;;;8.10;5.22;;;7.90;94.30;;;;;;4943381;29;20464;-92
2022/09/30 05:46:19;;;;;;;7.20;4.65;;;7.90;94.30;;;;;;4962659;29;20046;-89
2022/09/30 05:48:45;;;;;;;5.32;4.43;;;7.90;94.50;;;;;;4944434;29;20043;-90
2022/09/30 05:51:11;;;;;;;7.20;5.25;;;7.90;94.50;;;;;;4944365;29;20039;-91
2022/09/30 05:53:38;;;;;;;8.63;5.25;;;7.80;94.40;;;;;;4928410;29;20031;-91
2022/09/30 05:56:08;;;;;;;7.10;4.90;;;7.90;94.60;;;;;;4961755;29;20392;-88
2022/09/30 05:58:35;;;;;;;5.18;4.68;;;7.90;94.60;;;;;;4944479;29;20035;-89
2022/09/30 06:01:09;;;;;;;6.68;4.57;;;7.80;94.60;;;;;;4944241;29;20045;-90
2022/09/30 06:03:38;;;;;;;5.22;4.72;;;7.80;94.70;;;;;;4944436;29;20554;-90
2022/09/30 06:06:14;;;;;;;6.55;4.25;;;7.80;94.80;;;;;;4961384;29;20062;-90
2022/09/30 06:08:43;;;;;;;5.05;4.20;;;7.90;94.80;;;;;;4943930;29;20107;-90
2022/09/30 06:11:12;;;;;;;4.22;3.80;;;7.90;94.70;;;;;;4944133;29;20099;-91
2022/09/30 06:13:41;;;;;;;5.07;4.07;;;7.90;94.80;;;;;;4943590;29;20023;-89
2022/09/30 06:16:08;;;;;;;4.68;3.90;;;7.90;94.70;;;;;;4962000;29;20032;-90
2022/09/30 06:18:35;;;;;;;4.93;4.03;;;8.00;94.70;;;;;;4944447;29;20034;-90
2022/09/30 06:21:03;;;;;;;4.57;3.80;;;8.00;94.70;;;;;;4961387;29;20364;-91
2022/09/30 06:23:30;;;;;;;4.30;3.90;;;8.00;94.80;;;;;;4944615;29;20118;-89
2022/09/30 06:25:56;;;;;;;4.20;3.80;;;8.00;94.80;;;;;;4960384;29;20488;-89
2022/09/30 06:28:22;;;;;;;5.65;4.10;;;8.10;94.90;;;;;;4912394;29;20116;-90
2022/09/30 06:30:48;;;;;;;4.28;3.88;;;8.10;95.00;;;;;;4943024;29;20468;-89
2022/09/30 06:33:16;;;;;;;4.38;3.80;;;8.10;95.00;;;;;;4942912;29;20027;-91
2022/09/30 06:35:42;;;;;;;7.75;6.10;;;8.20;95.00;;;;;;4927678;29;20063;-89
2022/09/30 06:38:10;;;;;;;7.85;6.25;;;8.20;95.10;;;;;;4943967;29;20031;-90
2022/09/30 06:40:36;;;;;;;7.18;6.13;;;8.20;95.10;;;;;;4927176;29;20134;-89
2022/09/30 06:43:03;;;;;;;6.38;5.35;;;8.30;95.10;;;;;;4943123;29;20535;-90
2022/09/30 06:45:31;;;;;;;6.72;5.43;;;8.30;95.00;;;;;;4943693;29;20030;-89
2022/09/30 06:47:58;;;;;;;7.28;4.85;;;8.40;95.00;;;;;;4960782;29;20094;-90
2022/09/30 06:50:24;;;;;;;6.50;5.30;;;8.40;95.00;;;;;;4945026;29;20039;-90
2022/09/30 06:52:50;;;;;;;6.85;5.05;;;8.40;95.10;;;;;;4944804;29;20019;-89
2022/09/30 06:55:17;;;;;;;6.70;4.90;;;8.50;95.50;;;;;;4948053;28;20035;-89
2022/09/30 06:57:46;;;;;;;6.32;5.60;;;8.50;95.20;;;;;;4963551;28;20091;-89
2022/09/30 07:00:14;;;;;;;5.53;5.00;;;8.60;95.30;;;;;;4980325;28;20063;-89
2022/09/30 07:02:40;;;;;;;5.78;4.75;;;8.60;95.30;;;;;;4963354;29;20023;-89
2022/09/30 07:05:06;;;;;;;5.88;4.75;;;8.70;95.30;;;;;;4955115;29;20042;-89
2022/09/30 07:07:33;;;;;;;6.25;5.20;;;8.70;95.40;;;;;;4928042;29;20035;-90
2022/09/30 07:09:59;;;;;;;5.90;5.30;;;8.80;95.40;;;;;;4944289;29;20038;-88
2022/09/30 07:12:25;;;;;;;6.63;5.40;;;8.90;95.40;;;;;;4928585;29;20162;-90
2022/09/30 07:14:52;;;;;;;7.32;5.65;;;9.00;95.40;;;;;;4943592;29;20032;-89
2022/09/30 07:17:18;;;;;;;9.75;6.22;;;9.00;95.60;;;;;;4943584;29;20039;-91
2022/09/30 07:19:44;;;;;;;6.90;5.80;;;9.10;95.40;;;;;;4943779;29;20023;-90
2022/09/30 07:24:58;;;;;;;10.63;8.68;;;9.20;95.40;;;;;;4961315;29;20047;-90
2022/09/30 07:27:28;;;;;;;11.63;9.43;;;9.30;95.50;;;;;;4927095;29;20118;-90
2022/09/30 07:29:54;;;;;;;10.18;9.10;;;9.40;95.50;;;;;;4927076;29;20046;-91
2022/09/30 07:32:21;;;;;;;11.07;9.88;;;9.50;95.50;;;;;;4960346;29;20089;-90
2022/09/30 07:34:48;;;;;;;11.88;9.98;;;9.60;95.50;;;;;;4942321;29;20047;-91
2022/09/30 07:37:17;;;;;;;14.55;12.68;;;9.70;95.40;;;;;;4961267;29;20032;-90
2022/09/30 07:39:45;;;;;;;16.92;14.82;;;9.80;95.40;;;;;;4959735;29;20023;-89
2022/09/30 07:42:12;;;;;;;18.58;15.63;;;9.90;95.50;;;;;;4942965;29;20057;-90
2022/09/30 07:44:40;;;;;;;17.77;15.80;;;10.00;95.60;;;;;;4911756;29;20031;-89
2022/09/30 07:47:08;;;;;;;19.25;16.67;;;10.00;95.60;;;;;;4943795;29;20024;-91
2022/09/30 07:49:37;;;;;;;19.17;17.00;;;10.10;95.70;;;;;;4928343;29;20126;-90
2022/09/30 07:52:03;;;;;;;18.25;16.25;;;10.20;95.70;;;;;;4942778;29;20019;-90
2022/09/30 07:54:32;;;;;;;18.80;16.23;;;10.30;95.70;;;;;;4943217;29;20035;-90
2022/09/30 07:56:59;;;;;;;20.15;16.95;;;10.40;95.80;;;;;;4942618;29;20024;-89
2022/09/30 07:59:30;;;;;;;22.58;18.20;;;10.50;95.80;;;;;;4942663;29;20038;-91
2022/09/30 08:01:56;;;;;;;21.85;19.45;;;10.60;95.80;;;;;;4959108;29;20035;-89
2022/09/30 08:04:25;;;;;;;21.80;17.85;;;10.60;96.10;;;;;;4941891;29;20055;-90
2022/09/30 08:06:57;;;;;;;24.00;17.85;;;10.70;96.00;;;;;;4942248;29;20124;-89
2022/09/30 08:09:24;;;;;;;19.75;17.33;;;10.80;95.90;;;;;;4943011;29;20111;-90
2022/09/30 08:11:50;;;;;;;19.63;17.45;;;10.90;95.90;;;;;;4942335;29;20027;-90
2022/09/30 08:14:19;;;;;;;20.70;18.55;;;11.00;95.90;;;;;;4942256;29;20033;-89
2022/09/30 08:16:45;;;;;;;19.88;17.77;;;11.10;95.90;;;;;;4942877;29;20076;-90
2022/09/30 08:19:19;;;;;;;19.92;17.88;;;11.10;95.90;;;;;;4942407;29;20027;-90
2022/09/30 08:21:45;;;;;;;20.02;17.92;;;11.20;95.90;;;;;;4942723;29;20027;-92
2022/09/30 08:24:11;;;;;;;21.25;18.33;;;11.30;96.00;;;;;;4944554;29;20127;-90
2022/09/30 08:26:38;;;;;;;20.58;18.38;;;11.40;95.90;;;;;;4951847;29;20031;-90
2022/09/30 08:29:05;;;;;;;20.58;17.50;;;11.50;95.90;;;;;;4956847;28;20019;-88
2022/09/30 08:31:34;;;;;;;19.02;16.92;;;11.60;96.00;;;;;;4977767;28;20087;-89
2022/09/30 08:34:01;;;;;;;19.58;17.05;;;11.60;96.00;;;;;;4962188;28;20015;-92
2022/09/30 08:36:28;;;;;;;18.23;16.30;;;11.70;95.90;;;;;;4976660;28;20085;-90
2022/09/30 08:38:54;;;;;;;17.98;16.08;;;11.70;95.90;;;;;;4959692;28;20020;-88
2022/09/30 08:41:26;;;;;;;16.90;15.10;;;11.80;95.90;;;;;;4941444;29;20079;-92
2022/09/30 08:44:14;;;;;;;16.83;15.13;;;11.90;96.00;;;;;;4946181;29;20123;-90
2022/09/30 08:47:14;;;;;;;17.20;15.30;;;12.00;95.90;;;;;;4945618;29;20061;-89
2022/09/30 08:49:53;;;;;;;15.48;13.88;;;12.10;95.90;;;;;;4941732;29;20023;-90
2022/09/30 08:52:23;;;;;;;14.85;13.27;;;12.20;95.90;;;;;;4947616;29;20349;-89
2022/09/30 08:54:55;;;;;;;16.70;14.10;;;12.30;95.90;;;;;;4942591;29;20027;-89
2022/09/30 08:57:23;;;;;;;15.30;13.80;;;12.40;95.80;;;;;;4941754;29;20301;-89
2022/09/30 09:00:05;;;;;;;15.75;14.15;;;12.40;95.80;;;;;;4942581;29;20042;-88
2022/09/30 09:02:43;;;;;;;15.30;13.77;;;12.50;95.80;;;;;;4940193;29;20059;-89
2022/09/30 09:05:16;;;;;;;14.45;12.95;;;12.60;95.80;;;;;;4941623;29;20028;-88
2022/09/30 09:07:48;;;;;;;15.27;13.65;;;12.70;95.80;;;;;;4957897;28;20034;-90
2022/09/30 09:10:37;;;;;;;13.63;12.07;;;12.80;95.80;;;;;;4939297;29;20067;-90
2022/09/30 09:13:11;;;;;;;15.68;13.00;;;12.80;95.70;;;;;;4941534;29;20047;-89
2022/09/30 09:16:14;;;;;;;14.63;12.45;;;12.90;95.70;;;;;;4941615;29;20054;-89
2022/09/30 09:19:10;;;;;;;14.77;12.23;;;13.00;95.70;;;;;;4943695;29;20114;-89
2022/09/30 09:22:00;;;;;;;13.15;11.93;;;13.10;95.70;;;;;;4944835;29;20031;-89
2022/09/30 09:24:42;;;;;;;13.77;11.90;;;13.10;95.70;;;;;;4944505;29;20066;-89
2022/09/30 09:27:33;;;;;;;12.80;11.52;;;13.20;95.60;;;;;;4944903;29;20032;-90
2022/09/30 09:30:11;;;;;;;13.90;11.90;;;13.40;95.80;;;;;;4937402;29;20043;-88
2022/09/30 09:32:37;;;;;;;13.30;11.73;;;13.50;95.50;;;;;;4940500;29;20098;-90
2022/09/30 09:35:21;;;;;;;13.23;11.93;;;13.50;95.40;;;;;;4943658;29;20043;-90
2022/09/30 09:40:59;;;;;;;12.43;11.05;;;13.60;95.40;;;;;;4960784;29;20066;-89
2022/09/30 09:43:50;;;;;;;12.25;11.05;;;13.70;95.40;;;;;;4935316;29;20035;-89
2022/09/30 09:46:46;;;;;;;12.00;10.82;;;13.70;95.40;;;;;;4942269;29;20143;-90
2022/09/30 09:49:22;;;;;;;11.88;10.65;;;13.80;95.40;;;;;;4957656;29;20122;-90
2022/09/30 09:52:12;;;;;;;11.85;10.18;;;13.90;95.30;;;;;;4943707;29;20468;-89
2022/09/30 09:54:47;;;;;;;12.57;11.15;;;14.00;95.30;;;;;;4956054;29;20067;-89
2022/09/30 09:57:16;;;;;;;12.57;11.25;;;14.00;95.10;;;;;;4961006;29;20062;-89
2022/09/30 09:59:56;;;;;;;13.75;10.80;;;14.10;95.10;;;;;;4960943;29;20055;-90
2022/09/30 10:02:30;;;;;;;13.30;10.25;;;14.20;95.00;;;;;;4960223;29;20042;-88
2022/09/30 10:05:02;;;;;;;11.85;10.65;;;14.20;94.90;;;;;;4943158;29;20131;-87
2022/09/30 10:07:30;;;;;;;13.00;10.90;;;14.30;94.90;;;;;;4944198;29;20455;-90
2022/09/30 10:10:17;;;;;;;11.10;10.00;;;14.40;94.90;;;;;;4954442;29;20051;-90
2022/09/30 10:12:46;;;;;;;11.40;10.30;;;14.40;94.80;;;;;;4963254;29;20131;-88
2022/09/30 10:15:21;;;;;;;10.50;9.38;;;14.50;94.70;;;;;;4958800;28;20016;-89
2022/09/30 10:17:56;;;;;;;11.30;9.52;;;14.50;94.70;;;;;;4980199;28;20039;-89
2022/09/30 10:20:26;;;;;;;11.43;9.60;;;14.60;94.60;;;;;;4968742;28;20032;-90
2022/09/30 10:23:00;;;;;;;10.60;9.60;;;14.60;94.60;;;;;;4944570;29;20067;-89
2022/09/30 10:25:26;;;;;;;11.27;9.93;;;14.70;94.60;;;;;;4959816;29;20019;-90
2022/09/30 10:27:59;;;;;;;11.10;10.00;;;14.80;94.60;;;;;;4943357;29;20388;-88
2022/09/30 10:30:32;;;;;;;10.75;9.75;;;14.90;94.50;;;;;;4960676;28;20042;-89
2022/09/30 10:33:02;;;;;;;10.38;9.27;;;14.90;94.40;;;;;;4943572;29;20094;-89
2022/09/30 10:35:28;;;;;;;10.20;9.15;;;15.00;94.20;;;;;;4940514;29;20414;-88
2022/09/30 10:37:58;;;;;;;10.18;9.18;;;15.00;94.20;;;;;;4941974;29;20641;-88
2022/09/30 10:40:28;;;;;;;9.15;8.25;;;15.10;94.20;;;;;;4921332;29;20039;-88
2022/09/30 10:42:56;;;;;;;8.15;7.32;;;15.20;94.10;;;;;;4934790;29;20019;-90
2022/09/30 10:45:28;;;;;;;10.02;7.57;;;15.20;94.00;;;;;;4930710;29;20435;-90
2022/09/30 10:47:55;;;;;;;7.97;7.18;;;15.30;94.00;;;;;;4919957;29;20058;-90
2022/09/30 10:50:26;;;;;;;8.85;7.95;;;15.30;93.90;;;;;;4938317;29;20063;-90
2022/09/30 10:53:16;;;;;;;7.90;7.13;;;15.30;93.80;;;;;;4930353;29;20144;-88
2022/09/30 10:55:43;;;;;;;8.20;7.13;;;15.40;93.80;;;;;;4948947;29;20047;-89
2022/09/30 10:58:31;;;;;;;6.72;6.00;;;15.40;93.70;;;;;;4934065;29;20015;-90
2022/09/30 11:01:42;;;;;;;8.02;6.70;;;15.40;93.60;;;;;;4938388;29;20047;-91
2022/09/30 11:04:14;;;;;;;6.93;6.30;;;15.50;93.30;;;;;;4931498;29;20488;-89
2022/09/30 11:06:43;;;;;;;8.27;6.45;;;15.50;93.30;;;;;;4931761;29;20031;-91
2022/09/30 11:09:20;;;;;;;6.63;5.85;;;15.50;93.60;;;;;;4954949;29;20531;-88
2022/09/30 11:12:15;;;;;;;6.55;5.95;;;15.60;93.20;;;;;;4955037;29;20392;-91
2022/09/30 11:15:21;;;;;;;6.28;5.68;;;15.60;93.20;;;;;;4949462;29;20432;-89
2022/09/30 11:18:01;;;;;;;9.23;7.03;;;15.70;93.10;;;;;;4908215;28;20122;-90
2022/09/30 11:20:53;;;;;;;7.03;5.68;;;15.80;92.90;;;;;;4942540;29;20065;-94
2022/09/30 11:23:42;;;;;;;5.88;5.35;;;15.80;92.80;;;;;;4962437;29;20051;-90
2022/09/30 11:26:36;;;;;;;6.60;5.97;;;15.90;92.80;;;;;;4942093;29;20483;-92
2022/09/30 11:29:02;;;;;;;6.75;5.65;;;16.00;92.80;;;;;;4941779;29;20050;-91
2022/09/30 11:32:08;;;;;;;6.97;5.72;;;16.00;92.80;;;;;;4925272;29;20036;-91
2022/09/30 11:35:15;;;;;;;6.97;6.07;;;16.10;92.70;;;;;;4930583;29;20502;-91
2022/09/30 11:38:09;;;;;;;6.88;6.18;;;16.10;92.60;;;;;;4945050;29;20043;-90
2022/09/30 11:40:53;;;;;;;8.20;6.35;;;16.20;92.40;;;;;;4941453;29;20055;-91
2022/09/30 11:43:54;;;;;;;7.00;6.30;;;16.30;92.40;;;;;;4944959;29;20093;-92
2022/09/30 11:46:45;;;;;;;8.98;6.70;;;16.40;92.20;;;;;;4921152;29;20041;-91
2022/09/30 11:49:29;;;;;;;8.80;7.28;;;16.40;92.20;;;;;;4942942;29;20039;-88
2022/09/30 11:52:28;;;;;;;9.18;8.02;;;16.40;92.00;;;;;;4962449;29;20042;-91
2022/09/30 11:55:02;;;;;;;10.48;9.38;;;16.40;92.00;;;;;;4962091;28;20027;-91
2022/09/30 11:57:59;;;;;;;9.68;8.18;;;16.50;92.00;;;;;;4961351;28;20043;-89
2022/09/30 12:00:26;;;;;;;8.73;7.07;;;16.50;91.90;;;;;;4953790;29;20027;-91
2022/09/30 12:03:36;;;;;;;8.70;7.25;;;16.50;91.80;;;;;;4948748;29;20023;-91
2022/09/30 12:06:22;;;;;;;7.75;6.95;;;16.60;91.40;;;;;;4944482;29;20055;-90
2022/09/30 12:08:55;;;;;;;9.60;7.25;;;16.50;91.40;;;;;;4943920;29;20039;-91
2022/09/30 12:11:48;;;;;;;8.23;6.63;;;16.50;91.50;;;;;;4961930;29;20082;-92
2022/09/30 12:14:46;;;;;;;7.43;6.53;;;16.60;91.50;;;;;;4943113;29;20035;-90
2022/09/30 12:17:26;;;;;;;7.82;7.00;;;16.70;91.40;;;;;;4929885;29;20031;-90
2022/09/30 12:19:55;;;;;;;9.50;6.95;;;16.70;91.20;;;;;;4942689;29;20023;-91
2022/09/30 12:22:27;;;;;;;7.20;6.07;;;16.70;91.20;;;;;;4943457;29;20050;-93
2022/09/30 12:24:55;;;;;;;7.63;6.25;;;16.70;91.20;;;;;;4942985;29;20101;-90
2022/09/30 12:27:38;;;;;;;7.78;5.88;;;16.70;91.30;;;;;;4939199;29;20065;-90
2022/09/30 12:30:17;;;;;;;6.10;4.78;;;16.70;91.20;;;;;;4941754;29;20094;-91
2022/09/30 12:33:09;;;;;;;6.18;5.13;;;16.80;91.30;;;;;;4940679;29;20056;-90
2022/09/30 12:35:46;;;;;;;5.15;4.50;;;16.90;91.20;;;;;;4923680;29;20063;-91
2022/09/30 12:38:31;;;;;;;6.63;4.57;;;16.90;91.20;;;;;;4938750;29;20023;-90
2022/09/30 12:41:29;;;;;;;4.95;3.70;;;16.90;90.90;;;;;;4943188;29;20036;-90
2022/09/30 12:44:38;;;;;;;4.60;3.75;;;17.00;90.70;;;;;;4943368;29;20459;-91
2022/09/30 12:47:36;;;;;;;3.83;3.30;;;17.00;90.60;;;;;;4917531;29;20031;-92
2022/09/30 12:50:14;;;;;;;4.47;3.67;;;17.00;90.50;;;;;;4911240;29;20407;-90
2022/09/30 12:52:40;;;;;;;3.80;2.97;;;17.00;90.50;;;;;;4943498;29;20023;-92
2022/09/30 12:55:18;;;;;;;2.58;2.35;;;17.00;90.60;;;;;;4930695;29;20027;-91
2022/09/30 12:57:46;;;;;;;2.05;1.88;;;16.90;90.50;;;;;;4946932;29;20419;-91
2022/09/30 13:00:18;;;;;;;3.30;1.67;;;17.00;90.50;;;;;;4932775;29;20028;-91
2022/09/30 13:02:52;;;;;;;1.65;1.55;;;17.00;90.30;;;;;;4946925;29;20051;-91
2022/09/30 13:05:30;;;;;;;1.75;1.60;;;17.10;90.30;;;;;;4963193;29;20027;-90
2022/09/30 13:08:33;;;;;;;2.35;1.35;;;17.20;90.10;;;;;;4946388;29;20030;-91
2022/09/30 13:11:04;;;;;;;1.88;1.63;;;17.30;89.70;;;;;;4927289;29;20087;-90
2022/09/30 13:13:33;;;;;;;2.55;1.40;;;17.20;89.70;;;;;;4927117;29;20170;-90
2022/09/30 13:16:05;;;;;;;2.03;1.30;;;17.20;89.40;;;;;;4927152;29;20174;-91
2022/09/30 13:18:31;;;;;;;1.40;1.20;;;17.30;89.50;;;;;;4912329;29;20028;-90
2022/09/30 13:21:09;;;;;;;1.25;1.15;;;17.40;89.30;;;;;;4940586;29;20399;-91
2022/09/30 13:23:54;;;;;;;1.20;1.10;;;17.40;89.20;;;;;;4943934;29;20028;-90
2022/09/30 13:26:26;;;;;;;1.80;1.00;;;17.40;89.00;;;;;;4943943;29;20023;-91
2022/09/30 13:29:16;;;;;;;1.23;1.02;;;17.40;88.90;;;;;;4956199;29;20031;-90
2022/09/30 13:31:48;;;;;;;1.10;1.00;;;17.50;88.60;;;;;;4933208;29;20098;-92
2022/09/30 13:34:42;;;;;;;1.20;1.10;;;17.50;88.30;;;;;;4945336;29;20078;-89
2022/09/30 13:37:36;;;;;;;1.15;1.00;;;17.50;88.10;;;;;;4945397;29;20055;-92
2022/09/30 13:40:05;;;;;;;1.30;1.20;;;17.50;88.60;;;;;;4963977;29;20035;-91
2022/09/30 13:42:43;;;;;;;2.42;1.30;;;17.40;88.10;;;;;;4932066;29;20413;-88
2022/09/30 13:45:24;;;;;;;1.75;1.10;;;17.50;88.30;;;;;;4962855;28;20038;-91
2022/09/30 13:48:06;;;;;;;0.85;0.65;;;17.50;88.20;;;;;;4964075;28;20079;-88
2022/09/30 13:50:36;;;;;;;1.08;0.98;;;17.50;88.30;;;;;;4961314;28;20035;-93
2022/09/30 13:53:36;;;;;;;2.72;1.30;;;17.50;88.20;;;;;;4963564;28;20011;-89
2022/09/30 13:56:07;;;;;;;2.25;1.30;;;17.50;87.50;;;;;;4950488;29;20072;-90
2022/09/30 13:58:42;;;;;;;1.48;1.02;;;17.50;87.60;;;;;;4946178;29;20065;-91
2022/09/30 14:01:26;;;;;;;1.20;1.10;;;17.50;87.70;;;;;;4945160;29;20031;-93
2022/09/30 14:04:23;;;;;;;3.33;1.10;;;17.40;87.40;;;;;;4945333;29;20373;-90
2022/09/30 14:07:11;;;;;;;1.40;0.80;;;17.40;87.50;;;;;;4945789;29;20050;-90
2022/09/30 14:10:04;;;;;;;1.67;0.95;;;17.40;87.50;;;;;;4960284;29;20031;-92
2022/09/30 14:13:07;;;;;;;1.10;1.00;;;17.40;87.60;;;;;;4962559;29;20035;-93
2022/09/30 14:16:00;;;;;;;1.27;0.93;;;17.40;87.70;;;;;;4945239;29;20027;-90
2022/09/30 14:18:50;;;;;;;1.55;1.15;;;17.40;87.40;;;;;;4945158;29;20034;-91
2022/09/30 14:21:34;;;;;;;1.50;1.10;;;17.40;87.40;;;;;;4941143;29;20028;-91
2022/09/30 14:24:16;;;;;;;3.50;1.17;;;17.40;87.40;;;;;;4944179;29;20054;-90
2022/09/30 14:26:47;;;;;;;1.20;1.10;;;17.40;87.60;;;;;;4926268;29;20603;-90
2022/09/30 14:29:38;;;;;;;1.20;0.85;;;17.40;87.60;;;;;;4926523;29;20460;-91
2022/09/30 14:32:12;;;;;;;1.35;1.00;;;17.40;87.30;;;;;;4930195;29;20506;-89
2022/09/30 14:34:40;;;;;;;1.10;0.82;;;17.40;87.40;;;;;;4945802;29;20042;-92
2022/09/30 14:37:10;;;;;;;0.88;0.77;;;17.40;87.40;;;;;;4943951;29;20410;-90
2022/09/30 14:39:39;;;;;;;0.73;0.73;;;17.50;87.50;;;;;;4944856;29;20047;-91
2022/09/30 14:42:13;;;;;;;1.27;0.90;;;17.50;87.50;;;;;;4941160;29;20039;-91
2022/09/30 14:44:39;;;;;;;1.30;0.60;;;17.50;87.60;;;;;;4958305;29;20035;-90
2022/09/30 14:47:05;;;;;;;3.90;1.10;;;17.50;87.70;;;;;;4961290;28;20036;-91
2022/09/30 14:49:37;;;;;;;0.93;0.70;;;17.50;87.40;;;;;;4944610;29;20118;-92
2022/09/30 14:52:03;;;;;;;0.98;0.77;;;17.50;87.00;;;;;;4944663;29;20032;-91
2022/09/30 14:54:40;;;;;;;2.08;0.85;;;17.40;86.80;;;;;;4962176;29;20112;-90
2022/09/30 14:57:16;;;;;;;1.05;0.70;;;17.40;86.80;;;;;;4944770;29;20379;-90
2022/09/30 14:59:44;;;;;;;1.60;0.77;;;17.40;86.60;;;;;;4944142;29;20019;-91
2022/09/30 15:02:29;;;;;;;1.73;0.68;;;17.30;86.40;;;;;;4960836;29;20046;-91
2022/09/30 15:04:55;;;;;;;0.47;0.47;;;17.30;86.40;;;;;;4943889;29;20027;-89
2022/09/30 15:07:21;;;;;;;4.18;0.80;;;17.30;86.90;;;;;;4961208;29;20035;-89
2022/09/30 15:09:52;;;;;;;1.00;0.90;;;17.30;86.30;;;;;;4960234;29;20062;-89
2022/09/30 15:12:22;;;;;;;0.75;0.60;;;17.30;86.20;;;;;;4943569;29;20090;-92
2022/09/30 15:14:51;;;;;;;2.03;0.88;;;17.30;86.20;;;;;;4924869;29;20024;-90
2022/09/30 15:17:29;;;;;;;1.67;0.98;;;17.30;86.50;;;;;;4925349;29;20039;-91
2022/09/30 15:19:57;;;;;;;2.05;0.70;;;17.20;86.60;;;;;;4925173;29;20042;-91
2022/09/30 15:22:26;;;;;;;2.47;0.68;;;17.20;86.70;;;;;;4925944;29;20028;-89
2022/09/30 15:24:53;;;;;;;1.50;0.70;;;17.20;86.50;;;;;;4938977;29;20373;-91
2022/09/30 15:27:26;;;;;;;2.13;0.65;;;17.20;86.50;;;;;;4943246;29;20031;-92
2022/09/30 15:29:57;;;;;;;2.40;0.70;;;17.20;86.60;;;;;;4931454;29;20023;-90
2022/09/30 15:32:25;;;;;;;;;;;17.10;86.90;;;;;;4955872;29;20087;-89
2022/09/30 15:34:51;;;;;;;1.23;0.60;;;17.10;87.10;;;;;;4973073;28;19962;-90
2022/09/30 15:37:23;;;;;;;0.73;0.60;;;17.10;87.10;;;;;;4978579;28;20059;-90
2022/09/30 15:42:44;;;;;;;2.22;0.73;;;17.20;87.20;;;;;;4972805;29;20067;-89
2022/09/30 15:45:34;;;;;;;2.05;0.70;;;17.20;87.30;;;;;;4955643;29;20032;-88
2022/09/30 15:48:27;;;;;;;3.22;1.13;;;17.20;87.30;;;;;;4950239;29;20051;-87
2022/09/30 15:51:00;;;;;;;2.90;0.98;;;17.30;87.40;;;;;;4945423;29;20120;-87
2022/09/30 15:53:44;;;;;;;1.58;0.98;;;17.30;87.30;;;;;;4940856;29;20091;-88
2022/09/30 15:56:33;;;;;;;1.55;1.10;;;17.30;87.30;;;;;;4921339;29;20117;-87
2022/09/30 15:59:06;;;;;;;1.42;0.88;;;17.40;87.10;;;;;;4936029;29;20114;-87
2022/09/30 16:01:47;;;;;;;2.95;1.15;;;17.40;86.80;;;;;;4938220;29;20035;-88
2022/09/30 16:04:16;;;;;;;1.88;0.98;;;17.30;87.30;;;;;;4938381;29;20035;-84
2022/09/30 16:06:50;;;;;;;1.35;0.88;;;17.30;86.70;;;;;;4939539;29;20109;-87
2022/09/30 16:09:19;;;;;;;1.63;0.75;;;17.30;86.60;;;;;;4940494;29;20090;-87
2022/09/30 16:11:47;;;;;;;2.72;0.88;;;17.20;87.40;;;;;;4940755;29;20075;-88
2022/09/30 16:14:26;;;;;;;1.13;0.90;;;17.10;86.80;;;;;;4940876;29;20050;-89
2022/09/30 16:16:55;;;;;;;2.35;0.98;;;17.10;86.90;;;;;;4941132;29;20110;-89
2022/09/30 16:19:24;;;;;;;1.95;0.88;;;17.10;87.10;;;;;;4959923;29;20035;-85
2022/09/30 16:21:51;;;;;;;2.58;1.10;;;17.10;87.30;;;;;;4924000;29;20054;-86
2022/09/30 16:24:35;;;;;;;2.95;1.20;;;17.10;87.30;;;;;;4940474;29;20031;-85
2022/09/30 16:27:22;;;;;;;2.30;1.20;;;17.00;87.30;;;;;;4960133;28;20135;-87
2022/09/30 16:29:49;;;;;;;1.60;0.90;;;17.00;87.30;;;;;;4944166;29;20031;-87
2022/09/30 16:32:18;;;;;;;2.28;0.98;;;17.00;87.30;;;;;;4930589;29;20042;-91
2022/09/30 16:35:06;;;;;;;1.25;0.90;;;17.00;87.40;;;;;;4949655;29;20184;-90
2022/09/30 16:37:32;;;;;;;1.40;0.90;;;17.00;87.20;;;;;;4925795;29;20044;-89
2022/09/30 16:40:15;;;;;;;1.33;0.90;;;17.00;87.20;;;;;;4910361;29;20108;-89
2022/09/30 16:42:41;;;;;;;3.25;1.02;;;16.90;87.30;;;;;;4923985;29;20035;-90
2022/09/30 16:45:07;;;;;;;3.10;0.95;;;16.80;87.30;;;;;;4922658;29;20488;-90